Main page
METAR-TAF:

METAR-TAF

Airports :

Odiham, England

RAF Odiham

latitude: 51-14N, longitude: 000-57W, elevation: 123 m

Current weather observation

The report was made 1 hour and 4 minutes ago, at 16:50 UTC
Wind 2 kt from the West
Temperature 12°C
Humidity 62%
Pressure 1016 hPa
Visibility 10 km or more

METAR: EGVO 281650Z AUTO 28002KT 9999 OVC050/// 12/05 Q1016

Time: 18:54 (17:54 UTC)

Forecast

The report was made 4 hours and 5 minutes ago, at 13:49 UTC
Forecast valid from 28 at 15 UTC to 29 at 03 UTC
Wind 3 kt from variable directions
Visibility 10 km or more
Broken clouds at a height of 3500 ft

TAF: EGVO 281349Z 2815/2903 VRB03KT 9999 BKN035

Weather observations and forecasts of more than 4000 airports (METAR and TAF reports).

The available stations are represented by yellow and red dots on the map.

Hover mouse over dot to see the name of the station.

Then click to see weather observations and forecasts.

To change the map : click on the green buttons with a black cross to zoom in, on the green button with a dash to zoom out, or on the green arrows for adjacent maps.


METAR-TAF: